Time;durP1;ratioP1;P1;durP2;ratioP2;P2;SDS_P1;SDS_P2;PMS_P1;PMS_P2;Temp;Humidity;BMP_temperature;BMP_pressure;BME280_temperature;BME280_humidity;BME280_pressure;Samples;Min_cycle;Max_cycle;Signal;HPM_P1;HPM_P2
2021/06/05 00:00:55;;;;;;;1.58;1.48;;;10.20;99.90;;;;;;5056759;28;20083;-66
2021/06/05 00:03:21;;;;;;;2.05;1.35;;;9.70;99.90;;;;;;5056739;28;20559;-66
2021/06/05 00:05:53;;;;;;;1.20;1.10;;;10.30;99.90;;;;;;5056745;28;20033;-66
2021/06/05 00:08:21;;;;;;;2.78;1.42;;;10.60;99.90;;;;;;5056695;28;20060;-66
2021/06/05 00:10:51;;;;;;;4.95;1.30;;;10.00;99.90;;;;;;5056630;28;20401;-66
2021/06/05 00:13:25;;;;;;;3.40;1.45;;;9.80;99.90;;;;;;5056619;28;20056;-66
2021/06/05 00:15:51;;;;;;;1.25;1.00;;;9.00;99.90;;;;;;5056294;28;20103;-66
2021/06/05 00:18:18;;;;;;;2.65;1.10;;;10.00;99.90;;;;;;5056541;28;20029;-66
2021/06/05 00:20:44;;;;;;;3.50;1.42;;;9.40;99.90;;;;;;5056491;28;20025;-66
2021/06/05 00:23:13;;;;;;;4.00;1.30;;;9.80;99.90;;;;;;5056395;28;20471;-66
2021/06/05 00:25:40;;;;;;;1.88;1.20;;;9.90;99.90;;;;;;5056389;28;20095;-66
2021/06/05 00:28:06;;;;;;;1.77;1.30;;;9.40;99.90;;;;;;5056559;28;20036;-67
2021/06/05 00:30:33;;;;;;;4.53;1.10;;;9.20;99.90;;;;;;5056073;28;20029;-66
2021/06/05 00:32:59;;;;;;;2.88;1.42;;;9.60;99.90;;;;;;5056351;28;20025;-66
2021/06/05 00:35:27;;;;;;;4.32;1.55;;;9.30;99.90;;;;;;5056445;28;20049;-66
2021/06/05 00:37:53;;;;;;;1.40;1.30;;;9.80;99.90;;;;;;5056687;28;20048;-66
2021/06/05 00:40:23;;;;;;;4.75;1.20;;;9.70;99.90;;;;;;5056225;28;20371;-66
2021/06/05 00:42:49;;;;;;;2.22;1.45;;;9.70;99.90;;;;;;5056573;28;20029;-66
2021/06/05 00:45:17;;;;;;;1.63;1.50;;;9.70;99.90;;;;;;5058744;28;20078;-66
2021/06/05 00:47:43;;;;;;;3.47;1.40;;;9.50;99.90;;;;;;5060283;28;20025;-66
2021/06/05 00:50:11;;;;;;;1.20;1.20;;;9.50;99.90;;;;;;5060437;28;20025;-66
2021/06/05 00:52:37;;;;;;;1.00;1.00;;;9.60;99.90;;;;;;5060383;28;20114;-66
2021/06/05 00:55:05;;;;;;;4.32;1.23;;;8.80;99.90;;;;;;5060131;28;20031;-66
2021/06/05 00:57:32;;;;;;;1.95;1.40;;;9.90;99.90;;;;;;5060397;28;20021;-66
2021/06/05 00:59:58;;;;;;;1.40;1.30;;;8.70;99.90;;;;;;5059922;28;20102;-67
2021/06/05 01:02:24;;;;;;;8.63;1.58;;;8.90;99.90;;;;;;5060387;28;20028;-66
2021/06/05 01:04:50;;;;;;;2.30;1.63;;;8.70;99.90;;;;;;5059993;28;20041;-66
2021/06/05 01:07:19;;;;;;;;;;;9.40;99.90;;;;;;5060565;28;20036;-66
2021/06/05 01:10:00;;;;;;;3.88;1.30;;;9.60;99.90;;;;;;5059922;28;19904;-66
2021/06/05 01:13:05;;;;;;;1.42;1.35;;;9.10;99.90;;;;;;5060063;28;20033;-66
2021/06/05 01:16:00;;;;;;;3.50;1.55;;;8.30;99.90;;;;;;5059665;28;20442;-67
2021/06/05 01:19:04;;;;;;;5.95;1.60;;;9.10;99.90;;;;;;5057067;28;20037;-66
2021/06/05 01:22:06;;;;;;;1.73;1.40;;;8.90;99.90;;;;;;5059352;28;20112;-66
2021/06/05 01:24:58;;;;;;;1.00;1.00;;;9.30;99.90;;;;;;5059505;28;20043;-66
2021/06/05 01:27:30;;;;;;;4.95;1.40;;;8.70;99.90;;;;;;5059776;28;20025;-66
2021/06/05 01:29:59;;;;;;;1.92;1.10;;;8.50;99.90;;;;;;5059421;28;20381;-66
2021/06/05 01:32:27;;;;;;;4.30;1.70;;;9.00;99.90;;;;;;5059523;28;20532;-66
2021/06/05 01:34:58;;;;;;;2.67;1.88;;;8.40;99.90;;;;;;5059556;28;20028;-66
2021/06/05 01:37:25;;;;;;;3.28;1.50;;;8.70;99.90;;;;;;5059518;28;20433;-66
2021/06/05 01:39:52;;;;;;;2.75;1.30;;;8.90;99.90;;;;;;5059696;28;20485;-66
2021/06/05 01:42:26;;;;;;;3.92;1.10;;;8.80;99.90;;;;;;5059226;28;20033;-66
2021/06/05 01:44:56;;;;;;;1.42;1.33;;;8.60;99.90;;;;;;5059315;28;20104;-66
2021/06/05 01:47:22;;;;;;;1.40;1.30;;;8.80;99.90;;;;;;5059225;28;20095;-66
2021/06/05 01:49:49;;;;;;;1.33;1.23;;;9.20;99.90;;;;;;5059372;28;20493;-66
2021/06/05 01:52:22;;;;;;;1.27;1.20;;;8.20;99.90;;;;;;5059157;28;20064;-66
2021/06/05 01:55:17;;;;;;;1.30;1.10;;;8.40;99.90;;;;;;5058627;28;20021;-66
2021/06/05 01:57:50;;;;;;;1.35;1.30;;;8.10;99.90;;;;;;5058957;28;20437;-66
2021/06/05 02:00:28;;;;;;;1.63;1.52;;;8.70;99.90;;;;;;5058668;28;20056;-66
2021/06/05 02:02:54;;;;;;;1.40;1.20;;;8.10;99.90;;;;;;5059315;28;20043;-66
2021/06/05 02:05:23;;;;;;;2.38;1.23;;;8.70;99.90;;;;;;5058954;28;20048;-66
2021/06/05 02:07:52;;;;;;;1.38;1.27;;;8.50;99.90;;;;;;5058762;28;20032;-66
2021/06/05 02:10:21;;;;;;;3.08;1.30;;;8.20;99.90;;;;;;5058777;28;20025;-67
2021/06/05 02:12:50;;;;;;;1.27;1.27;;;8.20;99.90;;;;;;5058718;28;20089;-67
2021/06/05 02:15:44;;;;;;;2.85;2.10;;;8.60;99.90;;;;;;5058604;28;20021;-67
2021/06/05 02:18:14;;;;;;;2.78;1.40;;;8.20;99.90;;;;;;5061117;28;20037;-67
2021/06/05 02:21:03;;;;;;;3.20;1.30;;;8.70;99.90;;;;;;5058855;28;20024;-66
2021/06/05 02:23:34;;;;;;;1.58;1.48;;;8.70;99.90;;;;;;5058215;28;20064;-66
2021/06/05 02:26:00;;;;;;;3.85;1.48;;;8.20;99.90;;;;;;5058485;28;20029;-67
2021/06/05 02:28:28;;;;;;;2.15;1.67;;;8.50;99.90;;;;;;5058580;28;20033;-66
2021/06/05 02:30:55;;;;;;;1.65;1.35;;;8.30;99.90;;;;;;5058220;28;20108;-66
2021/06/05 02:33:23;;;;;;;1.60;1.50;;;8.80;99.90;;;;;;5058409;28;20398;-66
2021/06/05 02:35:50;;;;;;;1.30;1.30;;;8.60;99.90;;;;;;5058226;28;20366;-67
2021/06/05 02:38:18;;;;;;;1.20;1.20;;;7.50;99.90;;;;;;5058226;28;20029;-66
2021/06/05 02:40:46;;;;;;;6.47;1.60;;;8.10;99.90;;;;;;5058133;28;20012;-67
2021/06/05 02:43:16;;;;;;;2.08;1.50;;;8.00;99.90;;;;;;5058261;28;20035;-67
2021/06/05 02:45:49;;;;;;;1.23;1.17;;;7.90;99.90;;;;;;5058027;28;20031;-67
2021/06/05 02:48:15;;;;;;;1.70;1.60;;;8.10;99.90;;;;;;5058049;28;20482;-67
2021/06/05 02:50:45;;;;;;;1.40;1.40;;;8.00;99.90;;;;;;5058170;28;20021;-66
2021/06/05 02:53:11;;;;;;;1.75;1.50;;;8.10;99.90;;;;;;5057832;28;20033;-67
2021/06/05 02:55:38;;;;;;;4.18;1.60;;;8.20;99.90;;;;;;5058079;28;20017;-66
2021/06/05 02:58:06;;;;;;;4.15;1.65;;;8.20;99.90;;;;;;5057869;28;20021;-66
2021/06/05 03:00:37;;;;;;;1.70;1.58;;;8.20;99.90;;;;;;5057697;28;20027;-67
2021/06/05 03:03:05;;;;;;;3.53;1.50;;;7.30;99.90;;;;;;5057785;28;20029;-66
2021/06/05 03:05:32;;;;;;;1.63;1.52;;;8.00;99.90;;;;;;5057952;28;20033;-67
2021/06/05 03:07:58;;;;;;;1.50;1.40;;;7.90;99.90;;;;;;5056773;28;20028;-67
2021/06/05 03:10:28;;;;;;;2.55;1.40;;;7.60;99.90;;;;;;5057853;28;20052;-67
2021/06/05 03:12:53;;;;;;;1.90;1.60;;;7.40;99.90;;;;;;5057607;28;20025;-67
2021/06/05 03:15:20;;;;;;;;;;;7.90;99.90;;;;;;5057946;28;20025;-66
2021/06/05 03:17:46;;;;;;;1.65;1.55;;;8.10;99.90;;;;;;5057417;28;19915;-67
2021/06/05 03:20:16;;;;;;;1.60;1.50;;;7.20;99.90;;;;;;5057684;28;20104;-67
2021/06/05 03:22:42;;;;;;;1.95;1.80;;;7.70;99.90;;;;;;5057304;28;20106;-66
2021/06/05 03:25:08;;;;;;;;;;;7.50;99.90;;;;;;5057841;28;20080;-67
2021/06/05 03:27:34;;;;;;;1.58;1.55;;;7.50;99.90;;;;;;5057366;28;19928;-66
2021/06/05 03:30:00;;;;;;;;;;;8.10;99.90;;;;;;5057489;28;20029;-66
2021/06/05 03:32:26;;;;;;;2.97;1.58;;;7.30;99.90;;;;;;5057250;28;20380;-67
2021/06/05 03:34:52;;;;;;;1.73;1.63;;;7.70;99.90;;;;;;5057399;28;20084;-67
2021/06/05 03:37:18;;;;;;;1.50;1.50;;;7.40;99.90;;;;;;5057167;28;20036;-67
2021/06/05 03:39:44;;;;;;;1.65;1.55;;;7.50;99.90;;;;;;5057168;28;20032;-66
2021/06/05 03:42:10;;;;;;;;;;;8.00;99.90;;;;;;5057590;28;20021;-67
2021/06/05 03:44:35;;;;;;;3.63;1.40;;;7.90;99.90;;;;;;5056898;28;19905;-67
2021/06/05 03:47:01;;;;;;;;;;;7.80;99.90;;;;;;5057460;28;20167;-67
2021/06/05 03:49:27;;;;;;;1.50;1.40;;;7.20;99.90;;;;;;5057132;28;19905;-67
2021/06/05 03:51:53;;;;;;;;;;;7.80;99.90;;;;;;5057567;28;20053;-66
2021/06/05 03:54:19;;;;;;;1.55;1.50;;;7.20;99.90;;;;;;5056845;28;19916;-67
2021/06/05 03:56:45;;;;;;;2.72;1.67;;;8.30;99.90;;;;;;5056669;28;20491;-66
2021/06/05 03:59:11;;;;;;;;;;;8.10;99.90;;;;;;5057227;28;20031;-67
2021/06/05 04:01:38;;;;;;;1.58;1.48;;;7.50;99.90;;;;;;5056620;28;20270;-67
2021/06/05 04:04:05;;;;;;;3.20;1.80;;;7.90;99.90;;;;;;5056901;28;20048;-67
2021/06/05 04:06:31;;;;;;;1.63;1.52;;;6.90;99.90;;;;;;5056696;28;20025;-67
2021/06/05 04:08:58;;;;;;;1.80;1.70;;;7.90;99.90;;;;;;5056831;28;20033;-66
2021/06/05 04:11:28;;;;;;;1.88;1.77;;;7.40;99.90;;;;;;5056708;28;20024;-67
2021/06/05 04:13:56;;;;;;;1.27;1.27;;;6.80;99.90;;;;;;5056756;28;20163;-67
2021/06/05 04:16:22;;;;;;;2.80;1.58;;;7.10;99.90;;;;;;5056188;28;20056;-67
2021/06/05 04:18:49;;;;;;;2.10;1.90;;;7.40;99.90;;;;;;5056424;28;20078;-67
2021/06/05 04:21:19;;;;;;;3.22;1.50;;;7.40;99.90;;;;;;5056512;28;20025;-67
2021/06/05 04:23:46;;;;;;;2.05;1.85;;;7.80;99.90;;;;;;5056219;28;20847;-67
2021/06/05 04:26:13;;;;;;;2.78;1.75;;;7.60;99.90;;;;;;5056341;28;20057;-67
2021/06/05 04:28:39;;;;;;;1.33;1.30;;;6.90;99.90;;;;;;5056715;28;20013;-67
2021/06/05 04:31:07;;;;;;;1.60;1.50;;;7.20;99.90;;;;;;5056081;28;20649;-67
2021/06/05 04:33:34;;;;;;;1.67;1.58;;;7.10;99.90;;;;;;5056522;28;20051;-67
2021/06/05 04:36:07;;;;;;;2.03;1.80;;;7.10;99.90;;;;;;5056253;28;20025;-66
2021/06/05 04:38:37;;;;;;;2.83;2.08;;;7.60;99.90;;;;;;5056288;28;20053;-66
2021/06/05 04:41:05;;;;;;;1.95;1.85;;;7.80;99.90;;;;;;5056493;28;20092;-67
2021/06/05 04:43:32;;;;;;;4.25;1.73;;;6.70;99.90;;;;;;5056288;28;20017;-67
2021/06/05 04:45:58;;;;;;;3.80;2.00;;;7.70;99.90;;;;;;5056234;28;20033;-67
2021/06/05 04:48:24;;;;;;;;;;;7.30;99.90;;;;;;5056753;28;20025;-67
2021/06/05 04:50:52;;;;;;;3.47;1.77;;;7.60;99.90;;;;;;5056371;28;19905;-67
2021/06/05 04:53:18;;;;;;;1.40;1.40;;;7.20;99.90;;;;;;5056252;28;20029;-67
2021/06/05 04:55:43;;;;;;;;;;;7.40;99.90;;;;;;5056774;28;20024;-67
2021/06/05 04:58:09;;;;;;;1.75;1.65;;;7.80;99.90;;;;;;5056315;28;20361;-67
2021/06/05 05:00:40;;;;;;;;;;;7.70;99.90;;;;;;5056242;28;20021;-67
2021/06/05 05:03:08;;;;;;;1.70;1.60;;;8.10;99.90;;;;;;5056158;28;20280;-67
2021/06/05 05:05:33;;;;;;;1.88;1.60;;;7.70;99.90;;;;;;5056286;28;20071;-67
2021/06/05 05:08:00;;;;;;;;;;;8.60;99.90;;;;;;5056397;28;20021;-67
2021/06/05 05:10:30;;;;;;;2.08;1.98;;;8.80;99.90;;;;;;5056293;28;20349;-67
2021/06/05 05:12:55;;;;;;;1.92;1.83;;;8.50;99.90;;;;;;5056076;28;20033;-67
2021/06/05 05:15:22;;;;;;;;;;;8.80;99.90;;;;;;5056462;28;20021;-67
2021/06/05 05:17:48;;;;;;;1.60;1.50;;;9.50;99.90;;;;;;5055845;28;19905;-67
2021/06/05 05:20:17;;;;;;;1.70;1.60;;;9.10;99.90;;;;;;5056121;28;20338;-67
2021/06/05 05:22:43;;;;;;;1.67;1.58;;;9.10;99.90;;;;;;5055821;28;20083;-67
2021/06/05 05:25:11;;;;;;;2.92;1.42;;;9.10;99.90;;;;;;5055937;28;20091;-67
2021/06/05 05:27:36;;;;;;;1.52;1.40;;;9.60;99.90;;;;;;5055816;28;20515;-67
2021/06/05 05:30:04;;;;;;;;;;;9.90;99.90;;;;;;5056781;28;20143;-67
2021/06/05 05:32:30;;;;;;;1.30;1.30;;;10.10;99.90;;;;;;5059414;28;19913;-67
2021/06/05 05:34:56;;;;;;;;;;;11.10;99.90;;;;;;5060085;28;20096;-67
2021/06/05 05:37:22;;;;;;;1.37;1.30;;;10.20;99.90;;;;;;5059663;28;20388;-67
2021/06/05 05:39:48;;;;;;;1.40;1.30;;;10.10;99.90;;;;;;5059399;28;20393;-67
2021/06/05 05:42:13;;;;;;;2.83;1.40;;;10.40;99.90;;;;;;5059268;28;20056;-67
2021/06/05 05:44:39;;;;;;;1.58;1.42;;;10.70;99.90;;;;;;5059135;28;20105;-67
2021/06/05 05:47:05;;;;;;;1.45;1.30;;;11.10;99.90;;;;;;5059233;28;21365;-67
2021/06/05 05:49:31;;;;;;;1.55;1.35;;;11.30;99.90;;;;;;5059604;28;20017;-67
2021/06/05 05:51:57;;;;;;;2.08;1.50;;;11.80;99.90;;;;;;5059086;28;20056;-67
2021/06/05 05:54:23;;;;;;;5.57;1.52;;;12.20;99.90;;;;;;5059216;28;20047;-67
2021/06/05 05:56:49;;;;;;;1.83;1.70;;;11.70;99.90;;;;;;5058997;28;20021;-67
2021/06/05 05:59:16;;;;;;;2.08;1.80;;;12.00;99.90;;;;;;5058814;28;20108;-67
2021/06/05 06:01:43;;;;;;;2.15;2.05;;;12.50;99.90;;;;;;5058987;28;20032;-67
2021/06/05 06:04:09;;;;;;;4.75;1.80;;;12.60;99.90;;;;;;5059253;28;20108;-67
2021/06/05 06:06:35;;;;;;;1.30;1.20;;;13.20;99.90;;;;;;5058802;28;20106;-67
2021/06/05 06:09:01;;;;;;;2.15;1.55;;;13.30;99.90;;;;;;5058825;28;20021;-67
2021/06/05 06:11:27;;;;;;;2.65;1.45;;;13.90;99.90;;;;;;5058919;28;20029;-67
2021/06/05 06:13:55;;;;;;;2.92;1.98;;;13.70;99.90;;;;;;5058786;28;20082;-67
2021/06/05 06:16:22;;;;;;;1.70;1.60;;;14.20;99.90;;;;;;5058344;28;20685;-67
2021/06/05 06:18:48;;;;;;;3.28;1.67;;;14.40;99.90;;;;;;5058798;28;20485;-67
2021/06/05 06:21:16;;;;;;;9.45;2.45;;;15.40;99.90;;;;;;5058597;28;20025;-67
2021/06/05 06:23:42;;;;;;;4.15;2.38;;;14.90;99.90;;;;;;5058265;28;20597;-67
2021/06/05 06:26:13;;;;;;;4.32;2.65;;;15.50;99.90;;;;;;5058385;28;20032;-67
2021/06/05 06:28:40;;;;;;;7.53;2.10;;;16.00;99.90;;;;;;5058672;28;20150;-67
2021/06/05 06:31:07;;;;;;;3.88;1.95;;;15.90;99.90;;;;;;5058089;28;20036;-67
2021/06/05 06:33:34;;;;;;;4.65;1.80;;;16.30;99.90;;;;;;5058560;28;20025;-67
2021/06/05 06:36:00;;;;;;;3.28;1.63;;;16.80;99.90;;;;;;5058227;28;20108;-67
2021/06/05 06:38:41;;;;;;;7.72;2.17;;;17.00;99.90;;;;;;5058306;28;20075;-67
2021/06/05 06:41:24;;;;;;;3.90;1.50;;;17.30;99.90;;;;;;5058390;28;20029;-67
2021/06/05 06:43:50;;;;;;;7.63;1.50;;;17.70;99.90;;;;;;5058168;28;20507;-67
2021/06/05 06:46:24;;;;;;;5.25;1.38;;;18.10;99.90;;;;;;5057824;28;20029;-67
2021/06/05 06:48:52;;;;;;;4.55;1.33;;;18.70;99.90;;;;;;5058098;28;20112;-67
2021/06/05 06:51:18;;;;;;;2.60;0.95;;;18.80;99.90;;;;;;5058201;28;20040;-67
2021/06/05 06:53:44;;;;;;;5.07;2.08;;;19.20;99.90;;;;;;5057773;28;20438;-67
2021/06/05 06:56:11;;;;;;;5.80;1.98;;;19.60;99.90;;;;;;5057983;28;20025;-67
2021/06/05 06:58:37;;;;;;;5.57;1.63;;;19.70;99.90;;;;;;5057796;28;20457;-67
2021/06/05 07:01:04;;;;;;;5.35;1.75;;;19.50;99.90;;;;;;5057758;28;20040;-68
2021/06/05 07:03:30;;;;;;;4.57;1.80;;;19.30;99.90;;;;;;5057700;28;20029;-66
2021/06/05 07:05:56;;;;;;;5.97;2.78;;;19.20;99.90;;;;;;5057892;28;20087;-67
2021/06/05 07:08:30;;;;;;;6.93;2.80;;;19.20;99.90;;;;;;5041008;28;20033;-66
2021/06/05 07:11:00;;;;;;;8.48;2.72;;;19.20;99.90;;;;;;5051017;28;20037;-67
2021/06/05 07:13:27;;;;;;;8.98;1.73;;;19.60;99.90;;;;;;5060513;28;20024;-67
2021/06/05 07:15:55;;;;;;;6.93;1.92;;;20.00;99.90;;;;;;5067566;28;20032;-67
2021/06/05 07:18:22;;;;;;;4.20;1.88;;;20.70;99.90;;;;;;5057509;28;20029;-67
2021/06/05 07:20:49;;;;;;;8.65;2.22;;;21.10;99.90;;;;;;5057477;28;20025;-68
2021/06/05 07:23:19;;;;;;;6.70;3.10;;;21.30;99.90;;;;;;5056409;28;20088;-67
2021/06/05 07:25:45;;;;;;;7.13;2.17;;;21.30;99.90;;;;;;5057874;28;20233;-67
2021/06/05 07:28:23;;;;;;;8.80;2.20;;;21.20;99.90;;;;;;5057106;28;20025;-67
2021/06/05 07:30:50;;;;;;;5.97;1.90;;;21.00;99.90;;;;;;5056424;28;20032;-66
2021/06/05 07:33:18;;;;;;;5.93;2.47;;;21.30;99.90;;;;;;5057004;28;20025;-67
2021/06/05 07:35:44;;;;;;;5.88;2.03;;;21.40;99.90;;;;;;5057218;28;20029;-67
2021/06/05 07:38:12;;;;;;;7.28;2.28;;;21.40;99.90;;;;;;5056143;28;20028;-67
2021/06/05 07:40:40;;;;;;;5.90;1.98;;;21.60;99.90;;;;;;5055197;28;20108;-68
2021/06/05 07:43:06;;;;;;;4.82;2.15;;;22.10;99.90;;;;;;5055414;28;20047;-67
2021/06/05 07:45:32;;;;;;;5.57;2.20;;;22.30;98.90;;;;;;5056336;28;20036;-65
2021/06/05 07:47:59;;;;;;;7.05;1.80;;;22.40;98.60;;;;;;5056755;28;20017;-70
2021/06/05 07:50:26;;;;;;;5.53;2.40;;;22.50;99.40;;;;;;5057076;28;20389;-71
2021/06/05 07:52:52;;;;;;;5.05;1.92;;;22.30;98.00;;;;;;5056720;28;20025;-71
2021/06/05 07:55:18;;;;;;;7.10;1.77;;;22.10;98.30;;;;;;5056865;28;20028;-71
2021/06/05 07:57:44;;;;;;;7.75;1.67;;;22.00;98.80;;;;;;5056806;28;20021;-71
2021/06/05 08:00:26;;;;;;;6.93;1.77;;;22.20;99.30;;;;;;5056628;28;20036;-71
2021/06/05 08:02:52;;;;;;;6.18;1.95;;;22.90;99.30;;;;;;5057113;28;20489;-71
2021/06/05 08:05:19;;;;;;;6.32;2.10;;;22.90;97.70;;;;;;5056825;28;20029;-71
2021/06/05 08:07:45;;;;;;;10.60;2.17;;;22.90;97.50;;;;;;5056737;28;20025;-71
2021/06/05 08:10:12;;;;;;;6.63;2.17;;;23.10;96.60;;;;;;5056629;28;20024;-71
2021/06/05 08:12:39;;;;;;;5.38;1.42;;;23.20;96.20;;;;;;5056918;28;20021;-71
2021/06/05 08:15:07;;;;;;;8.40;1.67;;;23.70;96.00;;;;;;5056191;28;20025;-71
2021/06/05 08:17:34;;;;;;;6.00;2.05;;;23.90;96.00;;;;;;5056463;28;20060;-69
2021/06/05 08:20:00;;;;;;;7.88;1.63;;;24.30;95.90;;;;;;5056504;28;20017;-69
2021/06/05 08:22:27;;;;;;;4.35;1.50;;;24.60;95.50;;;;;;5056499;28;20037;-69
2021/06/05 08:24:54;;;;;;;3.85;1.48;;;25.30;95.60;;;;;;5056486;28;20033;-69
2021/06/05 08:27:21;;;;;;;3.72;1.35;;;25.60;90.70;;;;;;5056529;28;20474;-69
2021/06/05 08:29:47;;;;;;;5.25;1.40;;;25.60;92.10;;;;;;5055016;28;20025;-69
2021/06/05 08:32:13;;;;;;;4.65;1.48;;;25.90;90.40;;;;;;5056321;28;20424;-69
2021/06/05 08:34:39;;;;;;;5.82;1.95;;;26.00;87.50;;;;;;5056421;28;20025;-69
2021/06/05 08:37:05;;;;;;;3.47;1.20;;;25.90;86.20;;;;;;5056202;28;20019;-69
2021/06/05 08:39:31;;;;;;;7.22;1.55;;;26.20;86.00;;;;;;5056312;28;20155;-69
2021/06/05 08:42:00;;;;;;;7.75;1.88;;;26.30;83.90;;;;;;5056398;28;20051;-69
2021/06/05 08:44:40;;;;;;;8.45;1.77;;;26.40;83.50;;;;;;5056035;28;20500;-68
2021/06/05 08:47:15;;;;;;;4.30;1.08;;;26.50;82.70;;;;;;5056328;28;20052;-68
2021/06/05 08:49:42;;;;;;;;;;;26.50;84.70;;;;;;5056787;28;20056;-69
2021/06/05 08:52:17;;;;;;;5.28;1.42;;;26.70;83.90;;;;;;5056396;28;20007;-69
2021/06/05 08:54:52;;;;;;;6.15;1.67;;;27.10;83.20;;;;;;5056083;28;20029;-69
2021/06/05 08:57:31;;;;;;;4.80;1.27;;;27.20;82.40;;;;;;5056328;28;20044;-69
2021/06/05 09:00:05;;;;;;;8.13;1.88;;;26.40;81.50;;;;;;5055824;28;20025;-68
2021/06/05 09:02:32;;;;;;;3.63;1.60;;;25.80;83.00;;;;;;5056175;28;20017;-69
2021/06/05 09:05:00;;;;;;;3.30;1.30;;;26.20;85.50;;;;;;5056906;28;20079;-69
2021/06/05 09:07:26;;;;;;;4.20;1.27;;;26.90;82.90;;;;;;5059970;28;20021;-68
2021/06/05 09:09:53;;;;;;;5.18;0.95;;;27.50;79.30;;;;;;5060294;28;20071;-69
2021/06/05 09:12:19;;;;;;;3.72;1.42;;;27.70;80.00;;;;;;5059774;28;20094;-69
2021/06/05 09:14:47;;;;;;;3.88;1.20;;;28.40;80.90;;;;;;5059804;28;20024;-68
2021/06/05 09:17:30;;;;;;;6.13;1.38;;;28.70;78.30;;;;;;5059665;28;20031;-69
2021/06/05 09:20:01;;;;;;;2.70;0.82;;;29.40;78.30;;;;;;5059886;28;20052;-69
2021/06/05 09:22:38;;;;;;;5.90;1.30;;;30.30;78.20;;;;;;5059533;28;20045;-69
2021/06/05 09:25:30;;;;;;;3.60;1.58;;;30.70;72.30;;;;;;5059583;28;20021;-69
2021/06/05 09:28:15;;;;;;;2.30;1.20;;;30.30;71.10;;;;;;5059261;28;20090;-69
2021/06/05 09:30:42;;;;;;;4.03;1.20;;;29.20;71.10;;;;;;5059309;28;20032;-69
2021/06/05 09:33:13;;;;;;;4.65;1.75;;;28.70;72.20;;;;;;5059424;28;20056;-69
2021/06/05 09:35:44;;;;;;;4.07;1.20;;;28.40;75.90;;;;;;5059578;28;20025;-68
2021/06/05 09:38:39;;;;;;;3.63;1.63;;;27.70;72.90;;;;;;5059299;28;20023;-68
2021/06/05 09:41:16;;;;;;;4.10;1.33;;;26.20;73.00;;;;;;5057831;28;20035;-68
2021/06/05 09:43:43;;;;;;;2.97;1.23;;;25.50;76.50;;;;;;5059376;28;20041;-68
2021/06/05 09:46:31;;;;;;;2.63;0.95;;;26.50;78.90;;;;;;5058903;28;20440;-69
2021/06/05 09:49:26;;;;;;;1.77;0.93;;;27.80;75.80;;;;;;5059323;28;20025;-68
2021/06/05 09:52:06;;;;;;;4.03;1.20;;;29.10;74.50;;;;;;5059040;28;20095;-69
2021/06/05 09:54:45;;;;;;;5.65;1.50;;;29.50;71.20;;;;;;5058905;28;20029;-68
2021/06/05 09:57:28;;;;;;;6.40;1.65;;;29.30;70.00;;;;;;5059094;28;20025;-68
2021/06/05 10:00:06;;;;;;;4.43;1.20;;;28.80;71.00;;;;;;5058856;28;20064;-68
2021/06/05 10:02:33;;;;;;;6.10;1.13;;;27.80;68.70;;;;;;5059014;28;20021;-68
2021/06/05 10:05:36;;;;;;;1.85;0.90;;;26.20;72.70;;;;;;5059153;28;20025;-68
2021/06/05 10:08:26;;;;;;;4.30;0.93;;;25.10;74.90;;;;;;5058805;28;20028;-68
2021/06/05 10:11:03;;;;;;;4.57;1.00;;;24.40;77.90;;;;;;5057676;28;20057;-68
2021/06/05 10:13:34;;;;;;;2.80;0.75;;;25.10;78.60;;;;;;5058835;28;20036;-68
2021/06/05 10:16:10;;;;;;;5.90;1.23;;;26.60;76.20;;;;;;5058078;28;20496;-68
2021/06/05 10:18:44;;;;;;;4.70;0.95;;;28.30;74.00;;;;;;5058620;28;20480;-68
2021/06/05 10:21:31;;;;;;;4.00;1.00;;;29.60;68.30;;;;;;5058666;28;20021;-68
2021/06/05 10:24:17;;;;;;;6.13;2.10;;;30.40;67.70;;;;;;5058262;28;20072;-69
2021/06/05 10:26:45;;;;;;;3.15;0.82;;;30.80;65.90;;;;;;5058578;28;20397;-68
2021/06/05 10:29:34;;;;;;;3.70;1.67;;;29.60;65.20;;;;;;5058333;28;20348;-68
2021/06/05 10:32:05;;;;;;;5.30;1.33;;;27.10;68.90;;;;;;5058441;28;20044;-68
2021/06/05 10:34:44;;;;;;;2.50;1.13;;;25.40;72.70;;;;;;5058353;28;20397;-68
2021/06/05 10:37:15;;;;;;;3.30;1.33;;;24.90;73.90;;;;;;5058328;28;20401;-68
2021/06/05 10:39:43;;;;;;;4.88;1.73;;;24.70;77.50;;;;;;5058210;28;20106;-68
2021/06/05 10:42:37;;;;;;;3.55;0.93;;;25.90;77.00;;;;;;5058499;28;20017;-68
2021/06/05 10:45:10;;;;;;;3.38;1.08;;;27.90;71.20;;;;;;5058008;28;20071;-68
2021/06/05 10:47:48;;;;;;;3.53;1.00;;;28.90;69.80;;;;;;5058021;28;20497;-68
2021/06/05 10:50:52;;;;;;;15.00;8.75;;;30.20;67.00;;;;;;5058317;28;20021;-69
2021/06/05 10:53:26;;;;;;;4.35;2.20;;;31.20;67.50;;;;;;5075678;28;20039;-68
2021/06/05 10:56:20;;;;;;;6.80;1.08;;;31.00;66.20;;;;;;5060630;28;20037;-68
2021/06/05 10:58:52;;;;;;;2.63;1.15;;;30.30;65.10;;;;;;5058045;28;20048;-68
2021/06/05 11:01:29;;;;;;;1.90;0.70;;;28.60;67.60;;;;;;5057828;28;20113;-68
2021/06/05 11:03:57;;;;;;;3.08;0.75;;;28.80;69.40;;;;;;5058000;28;20132;-68
2021/06/05 11:06:26;;;;;;;1.98;0.82;;;29.70;66.40;;;;;;5058054;28;20025;-68
2021/06/05 11:08:59;;;;;;;2.05;0.82;;;29.90;64.60;;;;;;5057917;28;20453;-68
2021/06/05 11:11:44;;;;;;;1.23;0.90;;;29.30;64.50;;;;;;5057932;28;20021;-68
2021/06/05 11:14:22;;;;;;;3.90;1.10;;;29.80;67.10;;;;;;5057319;28;20059;-68
2021/06/05 11:16:57;;;;;;;3.60;1.20;;;29.90;63.90;;;;;;5050012;28;20592;-68
2021/06/05 11:19:36;;;;;;;3.05;0.80;;;29.40;63.10;;;;;;5043510;28;20025;-68
2021/06/05 11:22:09;;;;;;;2.38;0.77;;;29.10;63.60;;;;;;5057307;28;20039;-68
2021/06/05 11:24:37;;;;;;;2.15;0.82;;;28.70;64.80;;;;;;5057536;28;20412;-68
2021/06/05 11:27:10;;;;;;;1.38;0.60;;;27.60;64.40;;;;;;5057186;28;20075;-68
2021/06/05 11:29:35;;;;;;;2.70;0.82;;;26.90;66.30;;;;;;5056679;28;20115;-68
2021/06/05 11:32:32;;;;;;;2.65;0.90;;;27.10;66.90;;;;;;5057157;28;20059;-68
2021/06/05 11:35:00;;;;;;;2.70;1.15;;;27.90;67.40;;;;;;5057098;28;20025;-68
2021/06/05 11:37:32;;;;;;;1.55;0.80;;;29.40;66.60;;;;;;5057354;28;20024;-68
2021/06/05 11:40:06;;;;;;;3.88;1.25;;;30.10;63.50;;;;;;5055692;28;20022;-68
2021/06/05 11:42:32;;;;;;;1.47;0.80;;;29.50;63.40;;;;;;5057403;28;20043;-68
2021/06/05 11:45:00;;;;;;;5.15;1.45;;;29.40;64.50;;;;;;5056709;28;20032;-68
2021/06/05 11:47:27;;;;;;;1.10;0.80;;;30.40;64.60;;;;;;5057233;28;20071;-68
2021/06/05 11:50:34;;;;;;;3.72;1.00;;;31.10;60.80;;;;;;5057007;28;20032;-68
2021/06/05 11:53:38;;;;;;;2.13;0.82;;;31.50;57.80;;;;;;5056964;28;20025;-69
2021/06/05 11:56:07;;;;;;;2.60;0.77;;;31.80;59.20;;;;;;5055414;28;20501;-69
2021/06/05 11:58:36;;;;;;;2.40;0.75;;;31.80;58.20;;;;;;5057084;28;20043;-68
2021/06/05 12:01:07;;;;;;;2.55;0.77;;;31.30;60.90;;;;;;5056485;28;20057;-69
2021/06/05 12:03:40;;;;;;;4.10;1.20;;;30.50;60.40;;;;;;5056880;28;20025;-68
2021/06/05 12:06:18;;;;;;;2.72;1.15;;;29.50;61.60;;;;;;5056648;28;20029;-69
2021/06/05 12:08:46;;;;;;;1.65;0.70;;;28.20;62.50;;;;;;5056662;28;20113;-68
2021/06/05 12:11:37;;;;;;;5.45;1.38;;;28.40;65.40;;;;;;5056778;28;20079;-68
2021/06/05 12:17:21;;;;;;;2.67;0.73;;;30.90;62.00;;;;;;5052084;28;20040;-69
2021/06/05 12:19:47;;;;;;;1.45;0.73;;;31.90;60.40;;;;;;5056717;28;20056;-69
2021/06/05 12:22:17;;;;;;;2.05;1.23;;;32.20;60.00;;;;;;5056306;28;20076;-69
2021/06/05 12:24:50;;;;;;;3.35;0.90;;;32.30;59.10;;;;;;5056490;28;20029;-69
2021/06/05 12:27:28;;;;;;;1.52;1.05;;;31.50;58.80;;;;;;5056356;28;20079;-69
2021/06/05 12:30:13;;;;;;;1.60;0.60;;;30.10;60.40;;;;;;5056486;28;20088;-69
2021/06/05 12:32:41;;;;;;;2.50;0.60;;;29.90;60.90;;;;;;5056676;28;20112;-68
2021/06/05 12:35:27;;;;;;;2.88;0.77;;;29.20;61.70;;;;;;5056372;28;20024;-68
2021/06/05 12:37:56;;;;;;;1.90;0.80;;;30.00;65.10;;;;;;5056658;28;20028;-69
2021/06/05 12:40:46;;;;;;;2.85;0.93;;;31.30;62.30;;;;;;5059357;28;20021;-69
2021/06/05 12:43:17;;;;;;;1.95;0.90;;;31.90;58.10;;;;;;5059089;28;20040;-69
2021/06/05 12:45:43;;;;;;;3.78;1.08;;;32.10;60.20;;;;;;5060306;28;20017;-69
2021/06/05 12:48:15;;;;;;;1.60;0.68;;;32.30;59.80;;;;;;5060292;28;20017;-69
2021/06/05 12:50:42;;;;;;;4.35;0.68;;;33.00;58.80;;;;;;5060519;28;20086;-69
2021/06/05 12:53:24;;;;;;;1.75;0.80;;;33.30;58.50;;;;;;5060412;28;20040;-69
2021/06/05 12:55:56;;;;;;;3.78;0.85;;;32.90;58.30;;;;;;5060265;28;20032;-69
2021/06/05 12:58:45;;;;;;;2.47;0.82;;;30.90;58.80;;;;;;5060552;28;20061;-69
2021/06/05 13:01:28;;;;;;;2.40;0.90;;;28.90;60.30;;;;;;5060075;28;20029;-69
2021/06/05 13:03:54;;;;;;;2.92;1.00;;;28.60;64.20;;;;;;5060142;28;20078;-69
2021/06/05 13:06:31;;;;;;;2.50;1.00;;;29.40;66.60;;;;;;5060393;28;20025;-69
2021/06/05 13:09:22;;;;;;;3.58;1.20;;;30.50;63.00;;;;;;5059862;28;20025;-68
2021/06/05 13:11:52;;;;;;;4.57;0.90;;;30.70;59.80;;;;;;5060135;28;20020;-69
2021/06/05 13:14:25;;;;;;;2.80;1.13;;;31.20;59.80;;;;;;5059550;28;20040;-68
2021/06/05 13:17:10;;;;;;;2.95;0.70;;;31.40;59.20;;;;;;5059943;28;20013;-68
2021/06/05 13:19:36;;;;;;;;;;;31.20;59.10;;;;;;5049701;28;20111;-69